Time;durP1;ratioP1;P1;durP2;ratioP2;P2;SDS_P1;SDS_P2;PMS_P1;PMS_P2;Temp;Humidity;BMP_temperature;BMP_pressure;BME280_temperature;BME280_humidity;BME280_pressure;Samples;Min_cycle;Max_cycle;Signal;HPM_P1;HPM_P2
2022/06/14 00:02:30;;;;;;;5.10;1.90;;;13.10;95.90;;;;;;4948564;29;20049;-38
2022/06/14 00:04:56;;;;;;;3.42;1.67;;;13.00;95.90;;;;;;4948823;29;20019;-34
2022/06/14 00:07:21;;;;;;;4.35;1.60;;;13.00;95.90;;;;;;4948327;29;20764;-33
2022/06/14 00:09:47;;;;;;;2.80;1.40;;;13.00;96.00;;;;;;4948401;29;20031;-34
2022/06/14 00:12:13;;;;;;;4.15;2.05;;;13.00;96.20;;;;;;4948457;29;20027;-34
2022/06/14 00:14:39;;;;;;;6.85;2.45;;;13.00;96.20;;;;;;4948340;28;20031;-34
2022/06/14 00:17:04;;;;;;;8.85;2.42;;;12.90;96.80;;;;;;4948750;28;20419;-33
2022/06/14 00:19:30;;;;;;;6.70;2.17;;;12.90;97.00;;;;;;4947172;29;20038;-33
2022/06/14 00:22:01;;;;;;;8.27;2.38;;;12.80;97.10;;;;;;4948432;29;20026;-33
2022/06/14 00:24:27;;;;;;;7.80;2.22;;;12.90;97.00;;;;;;4947770;28;20040;-34
2022/06/14 00:26:53;;;;;;;7.03;2.10;;;12.90;97.10;;;;;;4948269;29;20030;-34
2022/06/14 00:29:18;;;;;;;5.45;1.85;;;12.80;97.20;;;;;;4948093;29;20054;-33
2022/06/14 00:31:44;;;;;;;4.25;1.98;;;12.80;97.40;;;;;;4947209;29;20023;-33
2022/06/14 00:34:09;;;;;;;7.50;2.15;;;12.90;97.50;;;;;;4948307;28;20490;-33
2022/06/14 00:36:35;;;;;;;7.65;1.90;;;12.80;97.50;;;;;;4947189;28;20109;-33
2022/06/14 00:39:04;;;;;;;4.82;1.67;;;12.80;97.40;;;;;;4947934;28;20019;-33
2022/06/14 00:41:37;;;;;;;6.65;1.92;;;12.80;97.50;;;;;;4947840;28;20110;-33
2022/06/14 00:44:06;;;;;;;6.55;2.10;;;12.80;97.60;;;;;;4947540;28;20094;-34
2022/06/14 00:46:56;;;;;;;9.23;2.17;;;12.80;97.70;;;;;;4946841;28;20023;-33
2022/06/14 00:49:31;;;;;;;6.53;2.20;;;12.70;97.70;;;;;;4948020;28;20066;-33
2022/06/14 00:52:06;;;;;;;5.50;1.98;;;12.70;97.80;;;;;;4947684;29;20023;-34
2022/06/14 00:54:40;;;;;;;7.30;2.08;;;12.70;97.80;;;;;;4946754;28;20106;-34
2022/06/14 00:57:12;;;;;;;4.95;2.03;;;12.70;97.90;;;;;;4947977;29;20065;-34
2022/06/14 00:59:49;;;;;;;6.77;2.20;;;12.70;97.90;;;;;;4947714;28;20039;-34
2022/06/14 01:02:23;;;;;;;9.10;2.38;;;12.60;98.20;;;;;;4947532;28;20275;-34
2022/06/14 01:04:49;;;;;;;5.78;2.08;;;12.60;98.20;;;;;;4947927;28;20126;-34
2022/06/14 01:07:27;;;;;;;4.40;1.73;;;12.60;98.20;;;;;;4946515;28;20027;-35
2022/06/14 01:10:02;;;;;;;4.97;1.67;;;12.60;98.10;;;;;;4947810;28;20278;-34
2022/06/14 01:12:35;;;;;;;5.68;2.03;;;12.60;98.30;;;;;;4937897;29;20078;-34
2022/06/14 01:15:17;;;;;;;6.72;2.03;;;12.50;98.30;;;;;;4947630;28;20472;-35
2022/06/14 01:17:50;;;;;;;5.05;2.03;;;12.50;98.30;;;;;;4947770;28;20398;-33
2022/06/14 01:20:19;;;;;;;8.20;1.92;;;12.60;98.60;;;;;;4946926;28;20177;-34
2022/06/14 01:22:46;;;;;;;5.75;2.00;;;12.60;98.30;;;;;;4946558;28;20035;-34
2022/06/14 01:25:12;;;;;;;6.25;1.73;;;12.60;98.30;;;;;;4948075;28;20375;-34
2022/06/14 01:27:40;;;;;;;3.20;1.40;;;12.60;98.30;;;;;;4946491;29;20545;-33
2022/06/14 01:30:27;;;;;;;5.38;1.85;;;12.50;98.30;;;;;;4947500;28;20027;-34
2022/06/14 01:33:08;;;;;;;4.25;1.70;;;12.50;98.60;;;;;;4947493;29;20027;-35
2022/06/14 01:35:37;;;;;;;5.47;2.78;;;12.40;98.50;;;;;;4946644;28;20146;-35
2022/06/14 01:38:06;;;;;;;7.95;2.47;;;12.40;99.00;;;;;;4947273;29;20035;-32
2022/06/14 01:40:52;;;;;;;5.70;2.47;;;12.30;99.00;;;;;;4947032;28;20039;-34
2022/06/14 01:43:40;;;;;;;5.30;1.83;;;12.20;99.10;;;;;;4946707;28;20289;-34
2022/06/14 01:46:25;;;;;;;5.15;2.20;;;12.20;99.20;;;;;;4947859;28;20062;-34
2022/06/14 01:52:16;;;;;;;4.82;2.10;;;12.10;99.50;;;;;;4928487;29;20054;-33
2022/06/14 01:54:44;;;;;;;8.30;2.70;;;12.10;99.60;;;;;;4946989;28;20093;-33
2022/06/14 01:57:17;;;;;;;7.13;2.40;;;12.10;99.90;;;;;;4950238;28;20511;-33
2022/06/14 02:00:07;;;;;;;6.05;2.10;;;12.10;99.90;;;;;;4950567;28;20027;-35
2022/06/14 02:06:04;;;;;;;6.05;2.00;;;12.00;99.90;;;;;;4949256;29;20082;-34
2022/06/14 02:08:35;;;;;;;5.65;1.95;;;12.10;99.90;;;;;;4950078;29;20032;-33
2022/06/14 02:11:06;;;;;;;7.80;2.35;;;12.10;99.90;;;;;;4950489;29;20027;-34
2022/06/14 02:13:38;;;;;;;7.40;3.05;;;12.10;99.90;;;;;;4949831;28;20035;-34
2022/06/14 02:16:15;;;;;;;7.72;1.92;;;12.10;99.90;;;;;;4951025;29;20032;-34
2022/06/14 02:18:51;;;;;;;7.03;2.28;;;12.10;99.90;;;;;;4949578;28;20386;-33
2022/06/14 02:21:32;;;;;;;4.95;1.90;;;12.10;99.90;;;;;;4950332;28;20277;-35
2022/06/14 02:24:06;;;;;;;5.50;2.22;;;12.10;99.90;;;;;;4950241;28;20510;-35
2022/06/14 02:27:02;;;;;;;9.98;2.75;;;12.10;99.90;;;;;;4949716;28;20593;-34
2022/06/14 02:29:59;;;;;;;6.82;3.58;;;12.00;99.90;;;;;;4949842;28;20039;-34
2022/06/14 02:32:34;;;;;;;7.95;2.65;;;11.90;99.90;;;;;;4947496;29;20058;-34
2022/06/14 02:35:11;;;;;;;9.05;3.95;;;11.80;99.90;;;;;;4950845;28;20498;-35
2022/06/14 02:37:58;;;;;;;11.73;3.35;;;11.80;99.90;;;;;;4950206;28;20391;-33
2022/06/14 02:40:38;;;;;;;4.97;2.75;;;11.80;99.90;;;;;;4950191;28;20030;-36
2022/06/14 02:43:17;;;;;;;6.68;2.45;;;11.80;99.90;;;;;;4950904;28;20121;-33
2022/06/14 02:45:52;;;;;;;9.50;3.10;;;11.70;99.90;;;;;;4949597;28;20952;-34
2022/06/14 02:48:38;;;;;;;8.85;3.17;;;11.70;99.90;;;;;;4949767;29;20386;-33
2022/06/14 02:51:31;;;;;;;8.27;2.40;;;11.70;99.90;;;;;;4950289;29;20034;-39
2022/06/14 02:54:01;;;;;;;;;;;11.70;99.90;;;;;;4930955;29;20032;-34
2022/06/14 02:56:54;;;;;;;10.73;3.42;;;11.70;99.90;;;;;;4944477;29;20432;-34
2022/06/14 02:59:27;;;;;;;14.23;3.08;;;11.70;99.90;;;;;;4930785;29;20031;-33
2022/06/14 03:02:27;;;;;;;8.00;2.58;;;11.60;99.90;;;;;;4946654;29;20042;-34
2022/06/14 03:05:15;;;;;;;10.73;3.70;;;11.60;99.90;;;;;;4946588;28;20047;-34
2022/06/14 03:07:58;;;;;;;7.97;3.30;;;11.60;99.90;;;;;;4945998;29;20035;-33
2022/06/14 03:10:39;;;;;;;6.57;2.90;;;11.60;99.90;;;;;;4949440;28;20031;-33
2022/06/14 03:13:28;;;;;;;11.93;3.03;;;11.50;99.90;;;;;;4949870;28;20024;-33
2022/06/14 03:16:10;;;;;;;8.57;2.83;;;11.50;99.90;;;;;;4949215;29;20034;-33
2022/06/14 03:18:50;;;;;;;8.43;2.90;;;11.50;99.90;;;;;;4940015;29;20501;-34
2022/06/14 03:21:21;;;;;;;6.78;2.60;;;11.60;99.90;;;;;;4948552;28;20054;-34
2022/06/14 03:23:50;;;;;;;9.25;3.28;;;11.50;99.90;;;;;;4949380;29;20031;-34
2022/06/14 03:26:44;;;;;;;11.90;3.20;;;11.60;99.90;;;;;;4949205;28;20031;-37
2022/06/14 03:29:18;;;;;;;8.15;2.63;;;11.60;99.90;;;;;;4941570;29;20042;-34
2022/06/14 03:31:53;;;;;;;8.57;2.67;;;11.60;99.90;;;;;;4949088;28;20676;-33
2022/06/14 03:34:29;;;;;;;5.95;2.20;;;11.60;99.90;;;;;;4948641;29;20147;-33
2022/06/14 03:36:56;;;;;;;7.13;2.30;;;11.70;99.90;;;;;;4949679;28;20483;-34
2022/06/14 03:39:27;;;;;;;5.95;2.10;;;11.70;99.90;;;;;;4949291;28;20023;-33
2022/06/14 03:41:54;;;;;;;4.90;1.85;;;11.70;99.90;;;;;;4948890;28;20023;-34
2022/06/14 03:44:22;;;;;;;5.28;1.80;;;11.80;99.90;;;;;;4949401;28;20082;-34
2022/06/14 03:47:15;;;;;;;5.45;2.13;;;11.80;99.90;;;;;;4948856;28;20566;-35
2022/06/14 03:49:49;;;;;;;7.53;2.30;;;11.90;99.90;;;;;;4936535;29;20391;-35
2022/06/14 03:52:34;;;;;;;6.03;2.47;;;11.90;99.90;;;;;;4948770;28;20027;-34
2022/06/14 03:55:17;;;;;;;7.88;2.50;;;11.90;99.90;;;;;;4949469;28;20061;-36
2022/06/14 03:58:01;;;;;;;6.47;2.42;;;11.90;99.90;;;;;;4948722;28;20246;-33
2022/06/14 04:00:51;;;;;;;6.78;2.70;;;11.90;99.90;;;;;;4948865;29;20034;-34
2022/06/14 04:03:49;;;;;;;7.10;2.60;;;12.00;99.90;;;;;;4948245;29;20154;-34
2022/06/14 04:06:39;;;;;;;5.72;2.53;;;11.90;99.90;;;;;;4948824;29;20031;-34
2022/06/14 04:09:23;;;;;;;6.15;2.42;;;12.00;99.90;;;;;;4948953;28;20122;-33
2022/06/14 04:12:13;;;;;;;7.82;2.70;;;11.90;99.90;;;;;;4941777;29;20462;-33
2022/06/14 04:15:02;;;;;;;7.07;2.22;;;12.00;99.90;;;;;;4948400;28;20468;-34
2022/06/14 04:17:42;;;;;;;6.70;2.30;;;11.90;99.90;;;;;;4943381;28;20039;-34
2022/06/14 04:20:25;;;;;;;6.70;2.42;;;11.90;99.90;;;;;;4949142;28;20055;-34
2022/06/14 04:23:12;;;;;;;;;;;11.90;99.90;;;;;;4948846;28;20428;-34
2022/06/14 04:25:43;;;;;;;6.25;2.40;;;12.00;99.90;;;;;;4947554;28;19932;-33
2022/06/14 04:28:37;;;;;;;6.00;2.95;;;12.00;99.90;;;;;;4948944;28;20035;-34
2022/06/14 04:31:13;;;;;;;4.97;2.10;;;12.00;99.90;;;;;;4939267;29;20600;-33
2022/06/14 04:33:51;;;;;;;6.72;2.17;;;12.00;99.90;;;;;;4947832;29;20159;-33
2022/06/14 04:36:21;;;;;;;4.68;2.20;;;11.90;99.90;;;;;;4947744;28;20486;-33
2022/06/14 04:38:53;;;;;;;7.93;2.28;;;11.90;99.90;;;;;;4947579;29;20139;-34
2022/06/14 04:41:51;;;;;;;6.28;2.17;;;12.00;99.90;;;;;;4939010;29;20031;-34
2022/06/14 04:44:37;;;;;;;5.45;2.30;;;12.00;99.90;;;;;;4946813;29;20046;-34
2022/06/14 04:47:16;;;;;;;7.35;2.15;;;12.10;99.90;;;;;;4947860;29;20254;-34
2022/06/14 04:49:56;;;;;;;6.55;2.60;;;12.10;99.90;;;;;;4947642;28;20039;-33
2022/06/14 04:52:39;;;;;;;3.78;2.00;;;12.10;99.90;;;;;;4947515;29;20397;-34
2022/06/14 04:55:07;;;;;;;;;;;12.10;99.90;;;;;;4948012;28;20031;-34
2022/06/14 04:57:55;;;;;;;7.28;2.28;;;12.20;99.90;;;;;;4947404;28;20048;-33
2022/06/14 05:00:24;;;;;;;7.43;2.20;;;12.20;99.90;;;;;;4947115;28;20483;-34
2022/06/14 05:02:58;;;;;;;4.43;1.95;;;12.20;99.90;;;;;;4948479;28;20172;-33
2022/06/14 05:05:36;;;;;;;4.70;1.90;;;12.20;99.90;;;;;;4947234;28;20343;-34
2022/06/14 05:08:14;;;;;;;7.40;2.17;;;12.30;99.90;;;;;;4947472;29;20130;-34
2022/06/14 05:10:50;;;;;;;4.95;1.75;;;12.30;99.90;;;;;;4947729;29;20098;-35
2022/06/14 05:13:23;;;;;;;4.65;1.95;;;12.30;99.90;;;;;;4947023;28;20023;-34
2022/06/14 05:15:51;;;;;;;;;;;12.30;99.90;;;;;;4947938;29;20041;-34
2022/06/14 05:18:37;;;;;;;5.47;1.95;;;12.30;99.90;;;;;;4947739;28;19911;-34
2022/06/14 05:21:38;;;;;;;4.75;1.90;;;12.40;99.90;;;;;;4946856;28;20035;-33
2022/06/14 05:24:05;;;;;;;5.70;1.77;;;12.40;99.90;;;;;;4928401;29;20031;-33
2022/06/14 05:26:47;;;;;;;7.30;2.10;;;12.40;99.90;;;;;;4942430;29;20034;-34
2022/06/14 05:29:39;;;;;;;4.88;1.52;;;12.50;99.90;;;;;;4949320;28;20047;-34
2022/06/14 05:32:26;;;;;;;8.40;1.80;;;12.50;99.90;;;;;;4931283;28;20040;-34
2022/06/14 05:35:11;;;;;;;5.65;2.10;;;12.60;99.90;;;;;;4951456;28;20031;-34
2022/06/14 05:37:52;;;;;;;5.60;2.17;;;12.70;99.90;;;;;;4950680;28;20019;-35
2022/06/14 05:40:39;;;;;;;6.32;2.67;;;12.70;99.90;;;;;;4951658;28;20028;-35
2022/06/14 05:43:12;;;;;;;5.90;2.50;;;12.80;99.90;;;;;;4950085;29;20106;-37
2022/06/14 05:45:42;;;;;;;5.90;2.10;;;12.80;99.90;;;;;;4949353;29;20031;-34
2022/06/14 05:48:13;;;;;;;4.80;1.90;;;12.90;99.90;;;;;;4948669;29;20054;-33
2022/06/14 05:50:43;;;;;;;5.55;1.77;;;12.90;99.90;;;;;;4950593;28;20081;-35
2022/06/14 05:53:19;;;;;;;3.97;1.70;;;13.00;99.90;;;;;;4950243;28;20027;-34
2022/06/14 05:55:50;;;;;;;5.13;1.92;;;13.10;99.90;;;;;;4947782;28;20054;-34
2022/06/14 05:58:37;;;;;;;5.72;1.90;;;13.10;99.90;;;;;;4950012;28;20110;-33
2022/06/14 06:01:12;;;;;;;5.88;2.13;;;13.20;99.90;;;;;;4949522;28;20335;-35
2022/06/14 06:03:53;;;;;;;4.97;1.70;;;13.30;99.90;;;;;;4946303;29;20031;-33
2022/06/14 06:06:27;;;;;;;5.85;1.55;;;13.30;99.90;;;;;;4949780;29;20110;-33
2022/06/14 06:09:01;;;;;;;4.32;1.33;;;13.40;99.90;;;;;;4950582;29;20039;-33
2022/06/14 06:12:00;;;;;;;4.28;1.45;;;13.50;99.90;;;;;;4948760;28;20023;-34
2022/06/14 06:14:30;;;;;;;3.33;1.65;;;13.50;99.90;;;;;;4939830;29;20031;-34
2022/06/14 06:17:10;;;;;;;3.88;1.10;;;13.50;99.90;;;;;;4949207;29;20110;-34
2022/06/14 06:19:44;;;;;;;5.07;1.10;;;13.60;99.90;;;;;;4940088;29;20065;-34
2022/06/14 06:22:15;;;;;;;4.30;1.13;;;13.70;99.90;;;;;;4949423;28;20103;-34
2022/06/14 06:24:52;;;;;;;3.45;1.10;;;13.70;99.90;;;;;;4948965;28;20031;-35
2022/06/14 06:27:24;;;;;;;7.07;2.03;;;13.80;99.90;;;;;;4949086;28;20039;-34
2022/06/14 06:29:54;;;;;;;3.85;1.23;;;13.80;99.90;;;;;;4949916;28;20031;-34
2022/06/14 06:32:21;;;;;;;3.75;1.13;;;13.90;99.90;;;;;;4948384;28;20028;-34
2022/06/14 06:34:48;;;;;;;2.78;1.00;;;14.00;99.90;;;;;;4950137;28;20114;-34
2022/06/14 06:37:37;;;;;;;2.85;1.13;;;14.00;99.90;;;;;;4949404;28;20279;-33
2022/06/14 06:40:19;;;;;;;2.45;0.90;;;14.20;99.90;;;;;;4937237;28;20625;-33
2022/06/14 06:42:49;;;;;;;2.40;0.93;;;14.30;99.90;;;;;;4955337;28;20027;-34
2022/06/14 06:45:30;;;;;;;2.80;1.00;;;14.30;99.90;;;;;;4937948;29;20031;-33
2022/06/14 06:48:09;;;;;;;2.95;0.80;;;14.30;99.90;;;;;;4950568;28;20035;-35
2022/06/14 06:50:51;;;;;;;2.90;0.95;;;14.40;99.90;;;;;;4949891;28;20020;-33
2022/06/14 06:53:22;;;;;;;2.78;0.80;;;14.40;99.70;;;;;;4953310;28;20035;-34
2022/06/14 06:56:17;;;;;;;1.95;0.88;;;14.40;99.80;;;;;;4950002;28;20055;-35
2022/06/14 06:59:17;;;;;;;4.13;1.08;;;14.50;99.70;;;;;;4949591;28;20035;-34
2022/06/14 07:01:44;;;;;;;2.05;1.08;;;14.50;99.70;;;;;;4954079;28;20053;-34
2022/06/14 07:05:03;;;;;;;2.80;1.00;;;14.60;99.50;;;;;;4959405;28;20119;-34
2022/06/14 07:07:28;;;;;;;2.90;0.98;;;14.60;99.50;;;;;;4950291;28;20045;-35
2022/06/14 07:10:04;;;;;;;1.52;1.00;;;14.60;99.50;;;;;;4954947;28;20490;-34
2022/06/14 07:12:45;;;;;;;3.33;1.08;;;14.60;99.40;;;;;;4948578;28;20042;-34
2022/06/14 07:15:19;;;;;;;4.22;1.50;;;14.70;99.40;;;;;;4950074;28;20031;-36
2022/06/14 07:18:04;;;;;;;3.22;1.00;;;14.70;99.10;;;;;;4930776;29;20499;-35
2022/06/14 07:20:57;;;;;;;2.67;1.10;;;14.70;98.40;;;;;;4944900;28;20543;-34
2022/06/14 07:23:51;;;;;;;1.83;0.80;;;14.90;98.50;;;;;;4960904;28;20034;-35
2022/06/14 07:26:23;;;;;;;1.13;0.82;;;14.90;98.60;;;;;;4949036;29;20589;-34
2022/06/14 07:29:04;;;;;;;1.42;0.60;;;15.00;98.30;;;;;;4949550;28;20050;-34
2022/06/14 07:31:36;;;;;;;3.58;0.90;;;15.00;98.30;;;;;;4948751;28;20015;-33
2022/06/14 07:34:02;;;;;;;3.03;1.02;;;15.20;98.10;;;;;;4949310;28;20031;-34
2022/06/14 07:36:51;;;;;;;2.60;1.10;;;15.20;98.00;;;;;;4948128;28;20479;-34
2022/06/14 07:39:43;;;;;;;2.40;1.13;;;15.30;97.60;;;;;;4948158;29;20046;-35
2022/06/14 07:42:29;;;;;;;1.43;0.70;;;15.40;97.20;;;;;;4946701;29;20478;-33
2022/06/14 07:45:07;;;;;;;3.50;0.95;;;15.50;97.30;;;;;;4949904;29;20035;-34
2022/06/14 07:47:35;;;;;;;2.28;1.00;;;15.70;97.30;;;;;;4937914;29;20030;-35
2022/06/14 07:50:06;;;;;;;3.05;0.93;;;15.80;97.30;;;;;;4948820;28;20414;-34
2022/06/14 07:52:42;;;;;;;2.33;0.77;;;15.80;97.10;;;;;;4948228;28;20062;-34
2022/06/14 07:55:45;;;;;;;2.17;0.93;;;15.90;97.00;;;;;;4948394;28;20383;-35
2022/06/14 07:58:32;;;;;;;2.33;1.00;;;15.90;96.80;;;;;;4943797;28;20054;-35
2022/06/14 08:01:09;;;;;;;4.93;1.15;;;15.90;96.90;;;;;;4952715;28;20019;-34
2022/06/14 08:03:43;;;;;;;2.13;0.82;;;15.90;96.90;;;;;;4947758;28;20115;-34
2022/06/14 08:06:22;;;;;;;2.92;1.00;;;16.00;96.90;;;;;;4948659;28;20062;-33
2022/06/14 08:08:59;;;;;;;5.18;1.02;;;16.10;96.80;;;;;;4948495;28;20094;-33
2022/06/14 08:11:32;;;;;;;2.85;0.85;;;16.10;96.70;;;;;;4948200;29;20109;-34
2022/06/14 08:14:02;;;;;;;2.17;1.02;;;16.20;96.70;;;;;;4948388;28;20656;-34
2022/06/14 08:16:29;;;;;;;2.88;1.02;;;16.30;96.80;;;;;;4947298;29;20019;-35
2022/06/14 08:19:05;;;;;;;2.90;0.93;;;16.30;96.50;;;;;;4948958;28;20529;-34
2022/06/14 08:21:37;;;;;;;1.90;0.73;;;16.30;96.70;;;;;;4947744;28;20391;-34
2022/06/14 08:24:27;;;;;;;1.30;0.77;;;16.50;96.50;;;;;;4949598;28;20031;-34
2022/06/14 08:27:15;;;;;;;2.58;0.90;;;16.50;96.30;;;;;;4958866;28;20398;-35
2022/06/14 08:29:48;;;;;;;4.20;1.00;;;16.70;96.10;;;;;;4955816;28;20054;-33
2022/06/14 08:32:32;;;;;;;1.50;0.63;;;16.90;95.90;;;;;;4956857;28;20340;-34
2022/06/14 08:35:14;;;;;;;2.65;1.00;;;17.00;95.80;;;;;;4946773;29;20066;-33
2022/06/14 08:37:57;;;;;;;2.50;1.20;;;17.10;95.80;;;;;;4947187;29;20042;-34
2022/06/14 08:40:50;;;;;;;2.75;0.73;;;17.20;95.70;;;;;;4947563;29;20075;-34
2022/06/14 08:43:29;;;;;;;2.53;0.98;;;17.20;95.50;;;;;;4947147;28;20039;-34
2022/06/14 08:46:18;;;;;;;1.83;0.85;;;17.20;95.50;;;;;;4928480;29;20451;-34
2022/06/14 08:49:08;;;;;;;2.17;0.93;;;17.00;95.50;;;;;;4946527;29;20138;-34
2022/06/14 08:52:17;;;;;;;3.35;0.90;;;16.90;95.40;;;;;;4946842;28;20569;-35
2022/06/14 08:55:03;;;;;;;1.25;0.73;;;16.80;95.50;;;;;;4936812;29;20043;-33
2022/06/14 08:58:04;;;;;;;2.50;0.80;;;16.70;95.60;;;;;;4909679;29;20044;-34
2022/06/14 09:01:01;;;;;;;2.63;0.93;;;16.80;95.50;;;;;;4915126;29;20048;-34
2022/06/14 09:03:46;;;;;;;2.25;0.90;;;16.80;95.40;;;;;;4907753;29;20099;-34
2022/06/14 09:06:41;;;;;;;1.67;0.82;;;16.90;95.30;;;;;;4908827;29;20058;-34
2022/06/14 09:09:18;;;;;;;2.22;0.90;;;17.10;95.20;;;;;;4909278;29;20051;-34
2022/06/14 09:11:53;;;;;;;1.50;0.98;;;17.30;95.00;;;;;;4898586;29;20035;-33
2022/06/14 09:14:59;;;;;;;2.03;1.00;;;17.30;94.80;;;;;;4908950;29;20435;-33
2022/06/14 09:17:34;;;;;;;3.45;0.90;;;17.40;94.50;;;;;;4893288;29;20032;-34
2022/06/14 09:20:02;;;;;;;2.05;0.77;;;17.30;94.30;;;;;;4917489;29;20088;-34
2022/06/14 09:22:34;;;;;;;2.45;1.00;;;17.30;94.20;;;;;;4916017;29;20436;-34
2022/06/14 09:25:14;;;;;;;2.80;1.45;;;17.30;94.30;;;;;;4910313;29;20040;-35
2022/06/14 09:27:48;;;;;;;1.42;0.70;;;17.40;94.30;;;;;;4908444;29;20488;-34
2022/06/14 09:30:42;;;;;;;2.75;1.10;;;17.50;94.30;;;;;;4909136;29;20040;-34
2022/06/14 09:33:16;;;;;;;2.10;0.90;;;17.60;94.10;;;;;;4910383;29;20039;-34
2022/06/14 09:36:12;;;;;;;1.48;0.80;;;17.90;94.00;;;;;;4906406;29;20123;-35
2022/06/14 09:39:06;;;;;;;2.33;0.90;;;18.10;93.80;;;;;;4909661;29;20168;-34
2022/06/14 09:42:03;;;;;;;3.17;1.30;;;18.20;93.70;;;;;;4900306;29;20589;-34
2022/06/14 09:45:02;;;;;;;3.85;1.00;;;18.30;92.60;;;;;;4908615;29;20137;-32
2022/06/14 09:48:02;;;;;;;2.65;1.15;;;18.20;92.60;;;;;;4907926;29;20145;-32
2022/06/14 09:50:57;;;;;;;3.67;1.10;;;18.00;92.40;;;;;;4909279;29;20036;-34
2022/06/14 09:53:53;;;;;;;2.22;1.00;;;17.90;92.30;;;;;;4890216;29;20032;-34
2022/06/14 09:56:58;;;;;;;3.55;1.00;;;17.80;92.50;;;;;;4927550;29;20054;-34
2022/06/14 09:59:47;;;;;;;1.95;0.90;;;17.70;92.70;;;;;;4946329;29;20622;-33
2022/06/14 10:02:34;;;;;;;1.90;0.95;;;17.60;92.80;;;;;;4938394;29;20035;-34
2022/06/14 10:05:41;;;;;;;2.42;0.95;;;17.60;92.90;;;;;;4946994;28;20035;-35
2022/06/14 10:08:26;;;;;;;2.97;1.10;;;17.60;93.10;;;;;;4924593;29;20055;-34
2022/06/14 10:11:21;;;;;;;1.75;0.85;;;17.60;93.10;;;;;;4947265;28;20073;-34
2022/06/14 10:13:58;;;;;;;1.73;0.70;;;17.70;93.10;;;;;;4927942;29;20090;-33
2022/06/14 10:16:38;;;;;;;1.15;0.70;;;17.80;93.00;;;;;;4949277;28;20451;-33
2022/06/14 10:19:16;;;;;;;1.80;0.80;;;17.90;92.80;;;;;;4951189;29;20039;-33
2022/06/14 10:22:14;;;;;;;2.17;0.95;;;18.20;92.70;;;;;;4950505;29;20046;-34
2022/06/14 10:24:57;;;;;;;2.03;1.10;;;18.30;92.40;;;;;;4950249;28;20111;-34
2022/06/14 10:30:18;;;;;;;3.05;0.90;;;18.40;92.30;;;;;;4949874;29;19980;-34
2022/06/14 10:33:09;;;;;;;3.60;0.70;;;18.40;92.20;;;;;;4950063;29;20042;-34
2022/06/14 10:35:45;;;;;;;1.40;0.60;;;18.40;92.40;;;;;;4949582;29;20398;-34
2022/06/14 10:38:39;;;;;;;2.97;0.80;;;18.40;92.40;;;;;;4939776;29;20155;-33
2022/06/14 10:41:26;;;;;;;2.92;0.85;;;18.50;92.20;;;;;;4949891;28;20098;-34
2022/06/14 10:43:52;;;;;;;2.25;0.80;;;18.60;92.00;;;;;;4949628;28;20031;-34
2022/06/14 10:46:26;;;;;;;2.70;1.25;;;18.70;91.90;;;;;;4949513;29;20125;-35
2022/06/14 10:49:11;;;;;;;2.60;1.13;;;18.80;91.60;;;;;;4950657;29;20088;-34
2022/06/14 10:52:09;;;;;;;0.95;0.70;;;19.00;91.40;;;;;;4948805;28;20583;-34
2022/06/14 10:55:01;;;;;;;2.92;1.15;;;19.20;91.20;;;;;;4949181;28;20411;-36
2022/06/14 10:57:37;;;;;;;1.27;0.80;;;19.30;90.90;;;;;;4948853;29;20523;-34
2022/06/14 11:00:18;;;;;;;1.20;0.65;;;19.30;90.80;;;;;;4949974;28;20046;-34
2022/06/14 11:02:58;;;;;;;2.22;0.85;;;19.30;90.90;;;;;;4949600;28;20035;-35
2022/06/14 11:05:41;;;;;;;1.75;0.77;;;19.40;90.90;;;;;;4929361;29;20039;-34
2022/06/14 11:08:24;;;;;;;1.92;0.70;;;19.30;90.70;;;;;;4950826;28;20078;-33
2022/06/14 11:11:00;;;;;;;1.95;0.80;;;19.20;90.80;;;;;;4931694;29;20023;-34
2022/06/14 11:13:55;;;;;;;2.78;0.98;;;19.20;90.80;;;;;;4947195;29;20035;-34
2022/06/14 11:16:44;;;;;;;2.80;0.95;;;19.20;90.90;;;;;;4950316;29;20027;-33
2022/06/14 11:19:58;;;;;;;1.73;0.80;;;19.20;90.40;;;;;;4946355;29;20039;-34
2022/06/14 11:22:53;;;;;;;2.42;0.90;;;19.20;90.50;;;;;;4949899;28;20174;-33
2022/06/14 11:25:46;;;;;;;2.20;0.85;;;19.20;90.30;;;;;;4949354;29;20031;-34
2022/06/14 11:28:36;;;;;;;1.27;0.63;;;19.10;90.30;;;;;;4948904;28;20098;-33
2022/06/14 11:31:21;;;;;;;2.20;0.75;;;19.10;90.30;;;;;;4949609;28;20039;-33
2022/06/14 11:34:05;;;;;;;1.23;0.75;;;19.00;90.40;;;;;;4948299;28;20118;-34
2022/06/14 11:36:44;;;;;;;1.65;0.60;;;19.00;90.30;;;;;;4929826;29;20038;-34
2022/06/14 11:39:43;;;;;;;2.28;0.70;;;19.00;90.20;;;;;;4946448;29;20094;-40
2022/06/14 11:42:23;;;;;;;3.15;0.90;;;19.00;90.20;;;;;;4937288;29;20047;-34
2022/06/14 11:45:09;;;;;;;1.88;1.00;;;19.20;90.10;;;;;;4948424;29;20065;-34
2022/06/14 11:47:59;;;;;;;1.48;0.68;;;19.20;89.40;;;;;;4947669;29;20082;-35
2022/06/14 11:50:50;;;;;;;2.17;0.80;;;19.20;89.70;;;;;;4952176;28;20033;-34
2022/06/14 11:53:24;;;;;;;1.33;0.63;;;19.30;90.00;;;;;;4951977;28;20134;-35
2022/06/14 11:55:59;;;;;;;1.60;0.70;;;19.50;90.00;;;;;;4950827;28;20047;-34
2022/06/14 11:58:41;;;;;;;1.98;0.60;;;19.60;90.00;;;;;;4949160;28;20419;-36
2022/06/14 12:01:21;;;;;;;1.85;0.85;;;19.80;89.90;;;;;;4939106;29;20083;-34
2022/06/14 12:03:58;;;;;;;2.58;1.05;;;19.90;89.40;;;;;;4953792;28;20030;-34
2022/06/14 12:06:51;;;;;;;1.17;0.65;;;19.90;89.10;;;;;;4950752;28;20058;-34
2022/06/14 12:09:35;;;;;;;1.92;0.80;;;19.80;88.90;;;;;;4948284;28;20039;-33
2022/06/14 12:12:10;;;;;;;1.60;0.80;;;19.80;88.90;;;;;;4948800;28;20070;-35
2022/06/14 12:15:00;;;;;;;3.28;0.80;;;19.80;88.80;;;;;;4947894;29;20023;-35
2022/06/14 12:17:30;;;;;;;1.25;0.60;;;19.80;88.60;;;;;;4947517;28;20042;-34
2022/06/14 12:20:05;;;;;;;2.10;0.75;;;19.70;88.60;;;;;;4948653;28;20038;-35
2022/06/14 12:22:52;;;;;;;1.85;1.00;;;19.80;88.70;;;;;;4947235;29;20450;-34
2022/06/14 12:28:08;;;;;;;2.22;1.05;;;20.10;88.50;;;;;;4948211;29;20087;-34
2022/06/14 12:30:35;;;;;;;3.83;1.52;;;20.30;88.30;;;;;;4947091;28;20028;-34
2022/06/14 12:33:29;;;;;;;2.03;0.93;;;20.40;88.40;;;;;;4948419;28;20475;-33
2022/06/14 12:36:28;;;;;;;2.45;0.80;;;20.50;88.60;;;;;;4947984;28;20143;-34
2022/06/14 12:38:59;;;;;;;1.33;0.80;;;20.70;88.70;;;;;;4929054;29;20039;-33
2022/06/14 12:42:00;;;;;;;0.90;0.60;;;20.70;88.70;;;;;;4946047;28;20086;-35
2022/06/14 12:44:55;;;;;;;0.98;0.60;;;20.80;88.80;;;;;;4942679;29;20514;-35
2022/06/14 12:47:45;;;;;;;1.38;0.75;;;20.90;88.40;;;;;;4951639;28;20019;-35
2022/06/14 12:50:35;;;;;;;1.85;0.90;;;21.00;88.10;;;;;;4956192;28;20043;-34
2022/06/14 12:53:24;;;;;;;2.53;1.02;;;21.10;87.60;;;;;;4944666;28;20034;-35
2022/06/14 12:55:55;;;;;;;3.88;1.17;;;21.20;86.70;;;;;;4949712;28;20039;-33
2022/06/14 12:58:36;;;;;;;1.93;0.80;;;21.30;85.90;;;;;;4955002;28;20019;-35
2022/06/14 13:01:19;;;;;;;3.50;1.10;;;21.40;86.20;;;;;;4950173;28;20174;-35
2022/06/14 13:03:57;;;;;;;2.60;0.90;;;21.50;86.40;;;;;;4948040;28;20388;-33
2022/06/14 13:06:57;;;;;;;2.47;1.02;;;21.60;86.30;;;;;;4947308;28;20023;-34
2022/06/14 13:09:38;;;;;;;1.90;1.08;;;21.70;86.00;;;;;;4950213;28;20629;-36
2022/06/14 13:12:41;;;;;;;1.80;0.88;;;21.80;86.10;;;;;;4949821;28;20046;-34
2022/06/14 13:15:09;;;;;;;;;;;21.80;86.10;;;;;;4948485;29;20069;-35
2022/06/14 13:17:53;;;;;;;1.85;0.80;;;21.80;86.00;;;;;;4947031;28;19968;-34
2022/06/14 13:20:20;;;;;;;3.22;1.25;;;21.80;85.90;;;;;;4955212;28;20481;-35
2022/06/14 13:22:57;;;;;;;1.63;0.90;;;21.70;85.60;;;;;;4954929;28;20062;-35
2022/06/14 13:25:47;;;;;;;1.42;0.80;;;21.70;85.90;;;;;;4961367;28;20085;-35
2022/06/14 13:28:18;;;;;;;1.70;0.75;;;21.70;86.10;;;;;;4949546;28;20054;-34
2022/06/14 13:30:53;;;;;;;1.77;0.80;;;21.80;86.30;;;;;;4947670;29;20133;-35
2022/06/14 13:33:38;;;;;;;1.80;0.85;;;21.80;86.30;;;;;;4946326;28;20479;-35
2022/06/14 13:36:13;;;;;;;2.28;0.90;;;21.90;86.10;;;;;;4948145;29;20031;-34
2022/06/14 13:39:05;;;;;;;2.47;0.82;;;22.00;85.70;;;;;;4946355;29;20046;-34
2022/06/14 13:42:07;;;;;;;2.28;1.10;;;22.10;85.60;;;;;;4946654;28;20031;-34
2022/06/14 13:44:49;;;;;;;2.57;0.70;;;22.20;84.90;;;;;;4925475;29;20082;-34
2022/06/14 13:47:28;;;;;;;1.77;0.90;;;22.40;84.80;;;;;;4946628;28;20114;-35
2022/06/14 13:50:03;;;;;;;1.42;0.70;;;22.50;84.40;;;;;;4947600;28;20046;-35
2022/06/14 13:52:40;;;;;;;0.98;0.70;;;22.60;84.40;;;;;;4950606;28;20041;-34
2022/06/14 13:55:47;;;;;;;2.35;0.82;;;22.60;84.20;;;;;;4950241;28;20066;-35
2022/06/14 13:58:21;;;;;;;0.75;0.55;;;22.60;84.30;;;;;;4941299;28;20047;-34
2022/06/14 14:01:02;;;;;;;1.40;0.80;;;22.60;84.50;;;;;;4950901;28;20521;-34
2022/06/14 14:03:36;;;;;;;2.10;0.85;;;22.60;84.30;;;;;;4953112;28;20539;-35
2022/06/14 14:06:19;;;;;;;1.50;0.80;;;22.60;84.30;;;;;;4962231;28;20023;-35
2022/06/14 14:09:03;;;;;;;2.03;1.13;;;22.60;84.30;;;;;;4956189;28;20039;-34
2022/06/14 14:11:52;;;;;;;1.13;0.63;;;22.60;84.00;;;;;;4950719;29;20019;-36